Time;durP1;ratioP1;P1;durP2;ratioP2;P2;SDS_P1;SDS_P2;PMS_P1;PMS_P2;Temp;Humidity;BMP_temperature;BMP_pressure;BME280_temperature;BME280_humidity;BME280_pressure;Samples;Min_cycle;Max_cycle;Signal;HPM_P1;HPM_P2
2022/11/26 00:02:28;;;;;;;3.90;1.40;;;23.20;99.90;;;;;;5032678;28;20226;-79
2022/11/26 00:05:00;;;;;;;3.13;1.50;;;23.20;99.90;;;;;;5030213;28;20328;-82
2022/11/26 00:07:34;;;;;;;4.80;1.80;;;23.00;99.90;;;;;;5015113;28;20197;-77
2022/11/26 00:10:07;;;;;;;5.68;1.88;;;23.00;99.90;;;;;;5032140;28;20193;-79
2022/11/26 00:12:42;;;;;;;4.20;1.85;;;23.40;99.90;;;;;;5032052;28;20281;-78
2022/11/26 00:15:19;;;;;;;4.50;1.77;;;23.70;99.90;;;;;;5031917;28;20287;-84
2022/11/26 00:17:56;;;;;;;4.05;1.65;;;23.70;99.90;;;;;;5032332;28;20233;-77
2022/11/26 00:20:31;;;;;;;2.72;1.50;;;23.40;99.90;;;;;;5029260;28;20654;-79
2022/11/26 00:23:04;;;;;;;3.30;1.60;;;23.20;99.90;;;;;;5028150;28;20197;-77
2022/11/26 00:25:41;;;;;;;3.13;1.60;;;23.00;99.90;;;;;;5032780;28;20193;-78
2022/11/26 00:28:29;;;;;;;5.07;1.80;;;23.00;99.90;;;;;;5030753;28;20194;-77
2022/11/26 00:31:03;;;;;;;3.20;1.30;;;23.10;99.90;;;;;;5030753;28;20265;-77
2022/11/26 00:33:34;;;;;;;1.70;1.40;;;23.20;99.90;;;;;;5023636;28;20659;-77
2022/11/26 00:36:09;;;;;;;2.95;1.52;;;23.00;99.90;;;;;;5032451;28;20236;-78
2022/11/26 00:38:41;;;;;;;3.78;1.83;;;22.90;99.90;;;;;;5026806;28;20204;-84
2022/11/26 00:41:21;;;;;;;3.67;1.60;;;23.30;99.90;;;;;;5031876;28;20281;-79
2022/11/26 00:43:55;;;;;;;2.05;1.60;;;23.20;99.90;;;;;;5020634;28;20199;-78
2022/11/26 00:46:28;;;;;;;3.47;1.55;;;23.60;99.90;;;;;;5029145;28;20196;-79
2022/11/26 00:48:59;;;;;;;2.67;1.48;;;23.60;99.90;;;;;;5028046;28;20234;-77
2022/11/26 00:51:30;;;;;;;2.45;1.42;;;23.30;99.90;;;;;;5027703;28;20313;-76
2022/11/26 00:54:04;;;;;;;2.40;1.38;;;23.30;99.90;;;;;;5025164;28;20741;-78
2022/11/26 00:56:36;;;;;;;3.85;1.70;;;23.60;99.90;;;;;;5028317;28;20277;-77
2022/11/26 00:59:12;;;;;;;2.20;1.63;;;23.90;99.90;;;;;;5027215;28;20277;-77
2022/11/26 01:01:43;;;;;;;3.28;1.70;;;24.10;99.90;;;;;;5028129;28;20618;-77
2022/11/26 01:04:14;;;;;;;4.65;1.70;;;24.10;99.90;;;;;;5031772;28;20212;-77
2022/11/26 01:06:47;;;;;;;4.28;1.50;;;24.30;99.90;;;;;;5030498;28;20194;-77
2022/11/26 01:09:21;;;;;;;2.85;1.40;;;23.90;99.90;;;;;;5027207;28;20286;-78
2022/11/26 01:11:53;;;;;;;3.95;1.58;;;24.00;99.90;;;;;;5027539;28;20217;-79
2022/11/26 01:14:27;;;;;;;3.88;1.60;;;24.20;99.90;;;;;;5031806;28;20194;-79
2022/11/26 01:16:59;;;;;;;2.20;1.40;;;24.40;99.90;;;;;;5029504;28;20268;-78
2022/11/26 01:19:35;;;;;;;3.17;1.60;;;24.40;99.90;;;;;;5021599;28;20194;-81
2022/11/26 01:22:07;;;;;;;4.00;1.70;;;24.50;99.90;;;;;;5028885;28;20661;-79
2022/11/26 01:24:39;;;;;;;5.03;1.58;;;24.70;99.90;;;;;;5026983;28;20281;-78
2022/11/26 01:27:16;;;;;;;4.47;1.38;;;24.90;99.90;;;;;;5028392;28;20198;-79
2022/11/26 01:29:50;;;;;;;3.15;1.70;;;24.50;99.90;;;;;;5022831;28;20230;-77
2022/11/26 01:32:21;;;;;;;2.85;1.52;;;24.40;99.90;;;;;;5024730;28;20224;-80
2022/11/26 01:34:52;;;;;;;2.15;1.45;;;24.50;99.90;;;;;;5029532;28;20206;-80
2022/11/26 01:37:24;;;;;;;5.47;1.85;;;24.40;99.90;;;;;;5029076;28;20305;-79
2022/11/26 01:39:55;;;;;;;4.15;1.67;;;24.50;99.90;;;;;;5022327;28;20309;-79
2022/11/26 01:42:38;;;;;;;4.13;1.60;;;24.80;99.90;;;;;;5035036;28;20199;-80
2022/11/26 01:45:18;;;;;;;3.85;1.77;;;24.70;99.90;;;;;;5034379;28;20317;-75
2022/11/26 01:47:50;;;;;;;3.10;1.55;;;24.80;99.90;;;;;;5025874;28;20229;-82
2022/11/26 01:50:53;;;;;;;4.70;1.98;;;25.00;99.90;;;;;;5032522;28;20224;-77
2022/11/26 01:53:36;;;;;;;3.35;1.80;;;25.30;99.90;;;;;;5029736;28;20198;-79
2022/11/26 01:56:15;;;;;;;4.50;1.63;;;25.20;99.90;;;;;;5032692;28;20194;-80
2022/11/26 01:58:50;;;;;;;3.42;1.40;;;25.10;99.90;;;;;;5031935;28;20200;-80
2022/11/26 02:01:25;;;;;;;3.42;1.48;;;24.30;99.90;;;;;;5029647;28;20193;-77
2022/11/26 02:04:08;;;;;;;5.25;1.70;;;23.60;99.90;;;;;;5028998;28;20221;-75
2022/11/26 02:06:39;;;;;;;1.88;1.30;;;23.30;99.90;;;;;;5028633;28;20234;-76
2022/11/26 02:09:12;;;;;;;3.47;1.70;;;23.60;99.90;;;;;;5032255;28;20276;-75
2022/11/26 02:11:44;;;;;;;4.10;1.83;;;23.70;99.90;;;;;;5033209;28;21844;-77
2022/11/26 02:14:18;;;;;;;6.82;2.35;;;24.00;99.90;;;;;;5033257;28;20249;-75
2022/11/26 02:17:23;;;;;;;3.75;1.60;;;24.00;99.90;;;;;;5031500;28;20285;-77
2022/11/26 02:20:29;;;;;;;5.28;1.70;;;23.80;99.90;;;;;;5032220;28;20234;-77
2022/11/26 02:23:35;;;;;;;3.78;1.45;;;23.80;99.90;;;;;;5030901;28;20241;-76
2022/11/26 02:26:48;;;;;;;4.13;1.67;;;24.00;99.90;;;;;;5001581;28;20202;-75
2022/11/26 02:29:25;;;;;;;4.82;1.42;;;24.10;99.90;;;;;;5008508;28;20772;-76
2022/11/26 02:32:05;;;;;;;3.08;1.52;;;24.00;99.90;;;;;;5032077;28;20727;-74
2022/11/26 02:34:46;;;;;;;3.63;1.80;;;23.90;99.90;;;;;;5027958;28;20711;-76
2022/11/26 02:37:23;;;;;;;5.03;2.00;;;23.90;99.90;;;;;;5032475;28;20248;-79
2022/11/26 02:39:55;;;;;;;2.00;1.40;;;23.70;99.90;;;;;;5027650;28;20569;-77
2022/11/26 02:42:28;;;;;;;5.03;1.80;;;23.70;99.90;;;;;;5032010;28;20194;-79
2022/11/26 02:45:05;;;;;;;3.42;1.50;;;23.70;99.90;;;;;;5033745;28;20305;-81
2022/11/26 02:47:42;;;;;;;2.90;1.45;;;23.80;99.90;;;;;;5032061;28;20290;-80
2022/11/26 02:50:18;;;;;;;3.40;1.42;;;23.60;99.90;;;;;;5029354;28;20221;-78
2022/11/26 02:52:52;;;;;;;4.50;1.70;;;23.60;99.90;;;;;;5022915;28;20219;-80
2022/11/26 02:55:26;;;;;;;4.03;1.85;;;23.50;99.90;;;;;;5033123;28;20285;-79
2022/11/26 02:57:58;;;;;;;5.55;1.73;;;23.40;99.90;;;;;;5033514;28;20209;-81
2022/11/26 03:00:29;;;;;;;5.25;1.65;;;23.40;99.90;;;;;;5034963;28;20273;-78
2022/11/26 03:03:09;;;;;;;2.25;1.40;;;23.50;99.90;;;;;;5033842;28;20245;-78
2022/11/26 03:05:42;;;;;;;4.57;1.70;;;23.40;99.90;;;;;;5034262;28;20202;-79
2022/11/26 03:08:14;;;;;;;5.40;1.40;;;23.40;99.90;;;;;;5032905;28;20278;-78
2022/11/26 03:10:45;;;;;;;4.18;1.52;;;23.40;99.90;;;;;;5030631;28;20263;-77
2022/11/26 03:13:20;;;;;;;4.80;1.58;;;23.40;99.90;;;;;;5014753;28;20220;-80
2022/11/26 03:15:51;;;;;;;5.03;1.90;;;23.40;99.90;;;;;;5031682;28;20209;-81
2022/11/26 03:18:26;;;;;;;3.88;1.55;;;23.30;99.90;;;;;;5027809;28;20194;-80
2022/11/26 03:20:57;;;;;;;4.78;1.60;;;23.00;99.90;;;;;;5031797;28;20288;-80
2022/11/26 03:23:29;;;;;;;2.85;1.52;;;23.10;99.90;;;;;;5033038;28;20198;-78
2022/11/26 03:26:00;;;;;;;3.13;1.45;;;23.40;99.90;;;;;;5028566;28;20198;-83
2022/11/26 03:28:32;;;;;;;2.70;1.48;;;23.30;99.90;;;;;;5023993;28;20194;-80
2022/11/26 03:31:04;;;;;;;2.95;1.40;;;23.30;99.90;;;;;;5028300;28;20658;-79
2022/11/26 03:33:37;;;;;;;3.83;1.50;;;23.40;99.90;;;;;;5028450;28;20229;-78
2022/11/26 03:36:09;;;;;;;2.75;1.58;;;23.00;99.90;;;;;;5030582;28;20257;-78
2022/11/26 03:38:41;;;;;;;3.08;1.42;;;22.80;99.90;;;;;;5031513;28;20234;-79
2022/11/26 03:41:12;;;;;;;4.40;1.55;;;22.80;99.90;;;;;;5028232;28;20283;-78
2022/11/26 03:43:43;;;;;;;4.18;1.63;;;22.70;99.90;;;;;;5031239;28;20607;-78
2022/11/26 03:46:15;;;;;;;4.07;1.63;;;22.90;99.90;;;;;;5030281;28;20202;-80
2022/11/26 03:48:49;;;;;;;5.60;1.63;;;23.00;99.90;;;;;;5028052;28;20254;-80
2022/11/26 03:51:21;;;;;;;5.10;1.60;;;23.00;99.90;;;;;;5030692;28;20198;-81
2022/11/26 03:53:52;;;;;;;2.15;1.50;;;22.90;99.90;;;;;;5032756;28;20328;-80
2022/11/26 03:56:23;;;;;;;2.83;1.50;;;23.00;99.90;;;;;;5032146;28;20201;-76
2022/11/26 03:58:55;;;;;;;4.63;1.90;;;22.90;99.90;;;;;;5033765;28;20197;-81
2022/11/26 04:01:26;;;;;;;4.05;1.60;;;22.90;99.90;;;;;;5028436;28;20199;-76
2022/11/26 04:04:02;;;;;;;5.68;1.70;;;22.70;99.90;;;;;;5029789;28;20213;-80
2022/11/26 04:06:33;;;;;;;3.90;1.50;;;22.60;99.90;;;;;;5030152;28;20339;-79
2022/11/26 04:09:04;;;;;;;2.17;1.30;;;22.70;99.90;;;;;;5033003;28;20198;-79
2022/11/26 04:11:35;;;;;;;6.72;1.30;;;22.60;99.90;;;;;;5031018;28;20198;-78
2022/11/26 04:14:06;;;;;;;3.58;1.33;;;22.60;99.90;;;;;;5022289;28;20243;-78
2022/11/26 04:16:38;;;;;;;5.05;1.40;;;22.50;99.90;;;;;;5029661;28;20278;-79
2022/11/26 04:19:12;;;;;;;3.15;1.35;;;22.40;99.90;;;;;;5032126;28;20209;-78
2022/11/26 04:21:43;;;;;;;3.88;1.20;;;22.40;99.90;;;;;;5032407;28;20193;-77
2022/11/26 04:24:15;;;;;;;5.28;0.98;;;22.30;99.90;;;;;;5032856;28;20273;-80
2022/11/26 04:26:46;;;;;;;6.40;1.42;;;22.40;99.90;;;;;;5026486;28;20278;-79
2022/11/26 04:29:17;;;;;;;4.47;1.00;;;22.40;99.90;;;;;;5031867;28;20269;-80
2022/11/26 04:31:48;;;;;;;2.92;1.30;;;22.40;99.90;;;;;;5026095;28;20198;-79
2022/11/26 04:34:23;;;;;;;5.13;1.23;;;22.50;99.90;;;;;;5030338;28;20233;-81
2022/11/26 04:36:54;;;;;;;3.83;1.20;;;22.60;99.90;;;;;;5029822;28;20221;-80
2022/11/26 04:39:26;;;;;;;3.58;1.20;;;22.70;99.90;;;;;;5031337;28;20281;-78
2022/11/26 04:41:57;;;;;;;3.13;1.30;;;22.60;99.90;;;;;;5026804;28;20228;-76
2022/11/26 04:44:28;;;;;;;4.10;1.00;;;22.60;99.90;;;;;;5031492;28;20202;-78
2022/11/26 04:46:59;;;;;;;2.40;0.80;;;22.60;99.90;;;;;;5031551;28;20216;-76
2022/11/26 04:49:33;;;;;;;1.52;0.80;;;22.40;99.90;;;;;;5024816;28;20278;-79
2022/11/26 04:52:04;;;;;;;4.35;1.08;;;22.30;99.90;;;;;;5024529;28;20309;-79
2022/11/26 04:54:38;;;;;;;3.17;1.02;;;22.20;99.90;;;;;;5025683;28;20194;-80
2022/11/26 04:57:09;;;;;;;2.42;1.00;;;22.30;99.90;;;;;;5023316;28;20217;-77
2022/11/26 04:59:42;;;;;;;3.33;1.17;;;22.30;99.90;;;;;;5031318;28;20198;-78
2022/11/26 05:02:13;;;;;;;4.47;1.10;;;22.30;99.90;;;;;;5032201;28;20202;-79
2022/11/26 05:04:47;;;;;;;2.38;0.90;;;22.30;99.90;;;;;;5030882;28;20201;-74
2022/11/26 05:07:18;;;;;;;2.47;0.90;;;22.40;99.90;;;;;;5032921;28;20196;-76
2022/11/26 05:09:49;;;;;;;6.35;1.15;;;22.30;99.90;;;;;;5031278;28;20560;-77
2022/11/26 05:12:20;;;;;;;7.43;1.13;;;22.20;99.90;;;;;;5028704;28;20216;-78
2022/11/26 05:14:51;;;;;;;3.42;0.88;;;22.20;99.90;;;;;;5027768;28;20202;-76
2022/11/26 05:17:22;;;;;;;2.40;0.93;;;22.10;99.90;;;;;;5031401;28;20194;-77
2022/11/26 05:19:57;;;;;;;3.80;0.90;;;22.00;99.90;;;;;;5038689;28;20270;-78
2022/11/26 05:22:28;;;;;;;3.92;0.90;;;21.90;99.90;;;;;;5036107;28;20220;-77
2022/11/26 05:24:59;;;;;;;4.63;0.90;;;21.70;99.90;;;;;;5031143;28;20194;-77
2022/11/26 05:27:31;;;;;;;2.72;0.80;;;21.80;99.90;;;;;;5034103;28;20288;-77
2022/11/26 05:30:06;;;;;;;2.92;0.82;;;21.90;99.90;;;;;;5031799;28;20276;-77
2022/11/26 05:32:37;;;;;;;3.20;0.90;;;21.90;99.90;;;;;;5037201;28;20213;-75
2022/11/26 05:35:15;;;;;;;2.50;0.85;;;21.90;99.90;;;;;;5031646;28;20273;-80
2022/11/26 05:37:46;;;;;;;4.32;0.95;;;21.90;99.90;;;;;;5038940;28;20236;-77
2022/11/26 05:40:18;;;;;;;3.65;0.80;;;21.90;99.90;;;;;;5033330;28;20199;-76
2022/11/26 05:42:49;;;;;;;4.45;0.70;;;21.90;99.90;;;;;;5031727;28;20198;-78
2022/11/26 05:45:19;;;;;;;4.93;1.00;;;21.90;99.90;;;;;;5032546;28;20191;-78
2022/11/26 05:47:50;;;;;;;4.50;0.63;;;21.80;99.90;;;;;;5039184;28;20186;-77
2022/11/26 05:50:23;;;;;;;4.05;0.90;;;21.80;99.90;;;;;;5038960;28;20183;-76
2022/11/26 05:52:54;;;;;;;3.17;0.77;;;21.70;99.90;;;;;;5028710;28;20217;-78
2022/11/26 05:55:25;;;;;;;5.28;0.70;;;21.60;99.90;;;;;;5036289;28;20194;-77
2022/11/26 05:57:55;;;;;;;3.78;0.80;;;21.50;99.90;;;;;;5035573;28;20198;-76
2022/11/26 06:00:27;;;;;;;4.20;0.90;;;21.40;99.90;;;;;;5033132;28;20553;-77
2022/11/26 06:02:58;;;;;;;3.20;0.98;;;21.40;99.90;;;;;;5031234;28;20725;-78
2022/11/26 06:05:30;;;;;;;3.70;0.90;;;21.40;99.90;;;;;;5029509;28;20531;-78
2022/11/26 06:08:01;;;;;;;12.50;1.88;;;21.20;99.90;;;;;;5037550;28;20194;-75
2022/11/26 06:10:32;;;;;;;40.42;3.83;;;21.20;99.90;;;;;;5032413;28;20194;-75
2022/11/26 06:13:03;;;;;;;4.88;1.10;;;21.20;99.90;;;;;;5029924;28;20225;-77
2022/11/26 06:15:33;;;;;;;3.80;0.85;;;21.10;99.90;;;;;;5034365;28;20679;-75
2022/11/26 06:18:04;;;;;;;5.88;1.08;;;21.00;99.90;;;;;;5033830;28;20629;-77
2022/11/26 06:20:38;;;;;;;4.18;0.93;;;21.00;99.90;;;;;;5029486;28;20196;-78
2022/11/26 06:23:09;;;;;;;6.47;0.82;;;21.00;99.90;;;;;;5030678;28;20202;-76
2022/11/26 06:25:42;;;;;;;3.03;0.65;;;20.90;99.90;;;;;;5032305;28;20205;-75
2022/11/26 06:28:13;;;;;;;2.67;0.80;;;20.80;99.90;;;;;;5028705;28;20209;-75
2022/11/26 06:30:46;;;;;;;1.83;0.70;;;20.80;99.90;;;;;;5028291;28;20198;-75
2022/11/26 06:33:16;;;;;;;6.05;1.20;;;20.90;99.90;;;;;;5034073;28;20573;-75
2022/11/26 06:35:51;;;;;;;3.58;0.80;;;20.90;99.90;;;;;;5033208;28;20225;-78
2022/11/26 06:38:22;;;;;;;4.85;0.80;;;20.90;99.90;;;;;;5028328;28;20197;-75
2022/11/26 06:40:58;;;;;;;5.78;1.00;;;20.80;99.90;;;;;;5028735;28;20209;-74
2022/11/26 06:43:31;;;;;;;4.25;0.82;;;20.90;99.90;;;;;;5024987;28;20280;-75
2022/11/26 06:46:04;;;;;;;2.88;0.80;;;20.90;99.90;;;;;;5026969;28;20195;-75
2022/11/26 06:48:35;;;;;;;2.85;0.90;;;20.80;99.90;;;;;;5030676;28;20214;-74
2022/11/26 06:51:10;;;;;;;3.15;0.80;;;20.70;99.90;;;;;;5026415;28;20202;-75
2022/11/26 06:53:40;;;;;;;3.70;0.85;;;20.70;99.90;;;;;;5025751;28;20221;-75
2022/11/26 06:56:14;;;;;;;6.00;0.80;;;20.70;99.90;;;;;;5035145;28;20638;-76
2022/11/26 06:58:45;;;;;;;2.78;0.60;;;20.70;99.90;;;;;;5028961;28;20351;-78
2022/11/26 07:01:19;;;;;;;5.38;0.90;;;20.60;99.90;;;;;;5023690;28;20289;-75
2022/11/26 07:03:50;;;;;;;5.63;0.98;;;20.50;99.90;;;;;;5026310;28;20199;-75
2022/11/26 07:06:24;;;;;;;4.20;0.80;;;20.40;99.90;;;;;;5033345;28;20548;-76
2022/11/26 07:08:56;;;;;;;5.72;0.70;;;20.40;99.90;;;;;;5030701;28;20206;-75
2022/11/26 07:11:28;;;;;;;3.83;1.00;;;20.50;99.90;;;;;;5033813;28;20197;-75
2022/11/26 07:14:00;;;;;;;5.00;0.88;;;20.50;99.90;;;;;;5027675;28;20216;-77
2022/11/26 07:16:31;;;;;;;1.45;0.70;;;20.50;99.90;;;;;;5024367;28;20202;-75
2022/11/26 07:19:05;;;;;;;6.15;0.80;;;20.50;99.90;;;;;;5034216;28;20277;-78
2022/11/26 07:21:37;;;;;;;2.92;0.70;;;20.40;99.90;;;;;;5025675;28;20645;-75
2022/11/26 07:24:09;;;;;;;3.55;0.70;;;20.40;99.90;;;;;;5032575;28;20200;-76
2022/11/26 07:26:40;;;;;;;2.40;0.90;;;20.40;99.90;;;;;;5029788;28;20558;-78
2022/11/26 07:29:11;;;;;;;5.88;1.00;;;20.20;99.90;;;;;;5030826;28;20194;-76
2022/11/26 07:31:43;;;;;;;5.55;0.90;;;20.20;99.90;;;;;;5028741;28;20627;-77
2022/11/26 07:34:14;;;;;;;3.50;0.77;;;20.20;99.90;;;;;;5033976;28;20246;-76
2022/11/26 07:36:48;;;;;;;3.45;1.00;;;20.20;99.90;;;;;;5031703;28;20233;-76
2022/11/26 07:39:19;;;;;;;7.13;0.73;;;20.10;99.90;;;;;;5022212;28;20210;-77
2022/11/26 07:41:51;;;;;;;5.13;1.08;;;20.00;99.90;;;;;;5030909;28;20191;-78
2022/11/26 07:44:22;;;;;;;7.18;0.90;;;20.20;99.90;;;;;;5022931;28;20194;-76
2022/11/26 07:46:54;;;;;;;4.15;0.90;;;20.30;99.90;;;;;;5033433;28;20629;-73
2022/11/26 07:49:26;;;;;;;6.97;0.93;;;20.40;99.90;;;;;;5034184;28;20194;-75
2022/11/26 07:51:59;;;;;;;4.80;0.90;;;20.30;99.90;;;;;;5033645;28;20293;-78
2022/11/26 07:54:31;;;;;;;6.45;1.00;;;20.20;99.90;;;;;;5033875;28;20308;-75
2022/11/26 07:57:02;;;;;;;3.85;0.95;;;20.10;99.90;;;;;;5032387;28;20201;-77
2022/11/26 07:59:33;;;;;;;7.35;1.05;;;20.00;99.90;;;;;;5027943;28;20293;-78
2022/11/26 08:02:04;;;;;;;4.88;0.70;;;20.00;99.90;;;;;;5026702;28;20202;-79
2022/11/26 08:04:34;;;;;;;3.47;1.02;;;20.10;99.90;;;;;;5033915;28;20191;-77
2022/11/26 08:07:07;;;;;;;5.07;0.75;;;20.10;99.90;;;;;;5033716;28;20556;-79
2022/11/26 08:09:40;;;;;;;3.00;0.60;;;20.20;99.90;;;;;;5025925;28;20197;-79
2022/11/26 08:12:11;;;;;;;4.85;0.80;;;20.30;99.90;;;;;;5032932;28;20190;-77
2022/11/26 08:14:42;;;;;;;2.70;0.60;;;20.30;99.90;;;;;;5034165;28;20216;-79
2022/11/26 08:17:12;;;;;;;4.15;0.80;;;20.30;99.90;;;;;;5033220;28;20212;-78
2022/11/26 08:19:43;;;;;;;6.28;1.08;;;20.20;99.90;;;;;;5028430;28;20198;-77
2022/11/26 08:22:16;;;;;;;5.28;1.00;;;20.10;99.90;;;;;;5023855;28;20205;-77
2022/11/26 08:24:47;;;;;;;5.30;0.90;;;20.00;99.90;;;;;;5033437;28;20265;-79
2022/11/26 08:27:17;;;;;;;3.35;0.75;;;19.80;99.90;;;;;;5023877;28;20186;-76
2022/11/26 08:29:48;;;;;;;4.28;0.93;;;19.70;99.90;;;;;;5027829;28;20190;-76
2022/11/26 08:32:19;;;;;;;2.75;0.68;;;19.60;99.90;;;;;;5029759;28;20285;-76
2022/11/26 08:34:50;;;;;;;3.90;0.82;;;19.60;99.90;;;;;;5026668;28;20215;-77
2022/11/26 08:37:25;;;;;;;5.43;0.90;;;19.50;99.90;;;;;;5023569;28;20724;-75
2022/11/26 08:39:56;;;;;;;6.25;1.13;;;19.50;99.90;;;;;;5033514;28;20718;-79
2022/11/26 08:42:27;;;;;;;6.72;1.30;;;19.40;99.90;;;;;;5032357;28;20222;-78
2022/11/26 08:44:57;;;;;;;4.50;0.88;;;19.30;99.90;;;;;;5027771;28;20194;-78
2022/11/26 08:47:29;;;;;;;6.82;1.20;;;19.20;99.90;;;;;;5033076;28;20191;-77
2022/11/26 08:50:00;;;;;;;4.22;0.80;;;19.20;99.90;;;;;;5026642;28;20201;-79
2022/11/26 08:52:32;;;;;;;7.35;1.10;;;19.20;99.90;;;;;;5031624;28;20196;-78
2022/11/26 08:55:04;;;;;;;6.03;0.85;;;19.10;99.90;;;;;;5033316;28;20218;-77
2022/11/26 08:57:35;;;;;;;6.72;0.93;;;19.10;99.90;;;;;;5032213;28;20222;-76
2022/11/26 09:00:06;;;;;;;8.23;0.93;;;19.10;99.90;;;;;;5032611;28;20197;-75
2022/11/26 09:02:37;;;;;;;4.03;0.90;;;19.00;99.90;;;;;;5032515;28;20191;-75
2022/11/26 09:05:09;;;;;;;6.97;0.88;;;19.00;99.90;;;;;;5027295;28;20191;-74
2022/11/26 09:07:41;;;;;;;3.80;0.80;;;19.00;99.90;;;;;;5030189;28;20190;-74
2022/11/26 09:10:13;;;;;;;4.35;1.10;;;18.90;99.90;;;;;;5032849;28;20196;-74
2022/11/26 09:12:43;;;;;;;5.28;0.90;;;18.90;99.90;;;;;;5024257;28;20277;-75
2022/11/26 09:15:14;;;;;;;5.40;0.90;;;18.90;99.90;;;;;;5032563;28;20226;-74
2022/11/26 09:17:45;;;;;;;5.32;0.90;;;18.90;99.90;;;;;;5030623;28;20190;-76
2022/11/26 09:20:16;;;;;;;5.18;1.05;;;18.90;99.90;;;;;;5021497;28;20187;-74
2022/11/26 09:22:48;;;;;;;7.10;1.40;;;18.90;99.90;;;;;;5031140;28;20190;-75
2022/11/26 09:25:19;;;;;;;6.00;1.35;;;18.90;99.90;;;;;;5032198;28;20202;-76
2022/11/26 09:27:50;;;;;;;4.93;1.33;;;18.90;99.90;;;;;;5032291;28;20197;-74
2022/11/26 09:30:21;;;;;;;3.63;0.75;;;18.90;99.90;;;;;;5032396;28;20193;-75
2022/11/26 09:32:52;;;;;;;2.45;0.80;;;18.90;99.90;;;;;;5030773;28;20630;-75
2022/11/26 09:35:23;;;;;;;4.95;0.95;;;18.80;99.90;;;;;;5029534;28;20236;-76
2022/11/26 09:37:56;;;;;;;4.70;1.02;;;18.90;99.90;;;;;;5023713;28;20240;-75
2022/11/26 09:40:38;;;;;;;4.07;0.90;;;18.80;99.90;;;;;;5032299;28;20240;-75
2022/11/26 09:43:18;;;;;;;5.63;0.90;;;18.80;99.90;;;;;;5029189;28;20191;-76
2022/11/26 09:45:54;;;;;;;5.82;1.45;;;18.80;99.90;;;;;;5031294;28;20194;-76
2022/11/26 09:48:30;;;;;;;2.10;0.70;;;18.80;99.90;;;;;;5028369;28;20186;-76
2022/11/26 09:51:05;;;;;;;5.70;1.00;;;18.80;99.90;;;;;;5032359;28;20217;-75
2022/11/26 09:53:42;;;;;;;6.30;0.90;;;18.80;99.90;;;;;;5032083;28;20206;-76
2022/11/26 09:56:17;;;;;;;5.65;1.00;;;18.80;99.90;;;;;;5032504;28;20528;-75
2022/11/26 09:58:55;;;;;;;4.15;0.80;;;18.70;99.90;;;;;;5032073;28;20821;-76
2022/11/26 10:01:27;;;;;;;7.07;0.82;;;18.70;99.90;;;;;;5027245;28;20187;-76
2022/11/26 10:03:58;;;;;;;4.75;1.02;;;18.70;99.90;;;;;;5036155;28;20620;-74
2022/11/26 10:06:41;;;;;;;4.28;0.90;;;18.70;99.90;;;;;;5036215;28;20193;-76
2022/11/26 10:09:36;;;;;;;6.43;1.05;;;18.60;99.90;;;;;;5027545;28;20195;-76
2022/11/26 10:12:16;;;;;;;5.63;0.90;;;18.60;99.90;;;;;;5035422;28;20190;-73
2022/11/26 10:14:54;;;;;;;7.95;1.20;;;18.60;99.90;;;;;;5028979;28;20700;-75
2022/11/26 10:17:35;;;;;;;5.88;0.70;;;18.60;99.90;;;;;;5028309;28;20296;-77
2022/11/26 10:20:30;;;;;;;7.05;0.90;;;18.60;99.90;;;;;;5035149;28;20198;-78
2022/11/26 10:23:05;;;;;;;7.65;1.25;;;18.60;99.90;;;;;;5027765;28;20187;-78
2022/11/26 10:25:44;;;;;;;5.20;0.90;;;18.60;99.90;;;;;;5027736;28;20208;-78
2022/11/26 10:28:21;;;;;;;3.55;0.82;;;18.50;99.90;;;;;;5033938;28;20193;-78
2022/11/26 10:30:58;;;;;;;4.35;0.98;;;18.50;99.90;;;;;;5024355;28;20195;-76
2022/11/26 10:33:32;;;;;;;5.57;1.00;;;18.50;99.90;;;;;;5033150;28;20201;-76
2022/11/26 10:36:05;;;;;;;3.42;0.73;;;18.50;99.90;;;;;;5030308;28;20302;-77
2022/11/26 10:38:36;;;;;;;7.68;1.00;;;18.50;99.90;;;;;;5026558;28;20608;-78
2022/11/26 10:41:12;;;;;;;6.35;1.13;;;18.50;99.90;;;;;;5031610;28;20233;-79
2022/11/26 10:43:43;;;;;;;4.53;0.90;;;18.50;99.90;;;;;;5032217;28;20194;-77
2022/11/26 10:46:34;;;;;;;3.60;1.27;;;18.50;99.90;;;;;;5032756;28;20202;-77
2022/11/26 10:49:25;;;;;;;2.63;0.85;;;18.50;99.90;;;;;;5034593;28;20749;-77
2022/11/26 10:52:01;;;;;;;4.00;0.80;;;18.50;99.90;;;;;;5028550;28;20285;-80
2022/11/26 10:54:35;;;;;;;7.13;1.10;;;18.50;99.90;;;;;;5031803;28;20218;-77
2022/11/26 10:57:17;;;;;;;4.15;0.95;;;18.50;99.90;;;;;;5029915;28;20209;-76
2022/11/26 10:59:54;;;;;;;3.42;0.80;;;18.50;99.90;;;;;;5034612;28;20186;-77
2022/11/26 11:02:35;;;;;;;4.32;1.08;;;18.40;99.90;;;;;;5031179;28;20736;-76
2022/11/26 11:05:10;;;;;;;4.82;0.85;;;18.40;99.90;;;;;;5031454;28;20198;-75
2022/11/26 11:07:45;;;;;;;14.02;7.88;;;18.40;99.90;;;;;;5033434;28;20276;-76
2022/11/26 11:10:20;;;;;;;14.15;8.80;;;18.40;99.90;;;;;;5030598;28;20264;-76
2022/11/26 11:13:06;;;;;;;7.28;1.88;;;18.40;99.90;;;;;;5026650;28;20190;-76
2022/11/26 11:15:39;;;;;;;7.72;1.40;;;18.40;99.90;;;;;;5032329;28;20224;-77
2022/11/26 11:18:20;;;;;;;4.93;1.25;;;18.40;99.90;;;;;;5033853;28;20391;-76
2022/11/26 11:20:59;;;;;;;5.10;1.80;;;18.40;99.90;;;;;;5026659;28;20202;-79
2022/11/26 11:23:33;;;;;;;3.53;1.10;;;18.30;99.90;;;;;;5011351;28;20223;-76
2022/11/26 11:26:10;;;;;;;6.70;1.13;;;18.30;99.90;;;;;;5029480;28;20268;-78
2022/11/26 11:28:49;;;;;;;4.75;1.13;;;18.30;99.90;;;;;;5030148;28;20289;-76
2022/11/26 11:31:21;;;;;;;4.82;0.77;;;18.30;99.90;;;;;;5027740;28;20657;-76
2022/11/26 11:33:55;;;;;;;6.90;1.08;;;18.30;99.90;;;;;;5033161;28;20187;-77
2022/11/26 11:36:31;;;;;;;6.07;0.88;;;18.30;99.90;;;;;;5028898;28;20234;-76
2022/11/26 11:39:03;;;;;;;4.15;1.30;;;18.30;99.90;;;;;;5032047;28;20193;-76
2022/11/26 11:41:38;;;;;;;2.58;0.90;;;18.30;99.90;;;;;;5033657;28;20305;-78
2022/11/26 11:44:18;;;;;;;6.47;1.10;;;18.30;99.90;;;;;;5028408;28;20277;-77
2022/11/26 11:47:31;;;;;;;4.32;0.88;;;18.30;99.90;;;;;;5031648;28;20285;-75
2022/11/26 11:50:28;;;;;;;8.38;1.60;;;18.20;99.90;;;;;;5002645;28;20198;-76
2022/11/26 11:53:17;;;;;;;5.60;1.10;;;18.20;99.90;;;;;;5014650;28;20206;-76
2022/11/26 11:56:13;;;;;;;6.03;1.02;;;18.20;99.90;;;;;;5030548;28;20584;-76
2022/11/26 11:59:06;;;;;;;5.43;0.90;;;18.20;99.90;;;;;;5033038;28;20600;-76
2022/11/26 12:01:55;;;;;;;6.70;1.13;;;18.20;99.90;;;;;;5029764;28;20231;-78
2022/11/26 12:04:47;;;;;;;5.03;1.02;;;18.20;99.90;;;;;;5024394;28;20194;-76
2022/11/26 12:07:36;;;;;;;5.80;1.20;;;18.20;99.90;;;;;;5032862;28;20284;-78
2022/11/26 12:10:15;;;;;;;5.25;1.00;;;18.20;99.90;;;;;;5027782;28;20290;-77
2022/11/26 12:12:51;;;;;;;6.97;1.25;;;18.20;99.90;;;;;;5027163;28;20202;-77
2022/11/26 12:15:28;;;;;;;6.03;1.20;;;18.20;99.90;;;;;;5027995;28;20264;-76
2022/11/26 12:18:08;;;;;;;9.63;3.13;;;18.20;99.90;;;;;;5026397;28;20280;-77
2022/11/26 12:20:43;;;;;;;27.80;16.58;;;18.20;99.90;;;;;;5024993;28;20236;-77
2022/11/26 12:23:27;;;;;;;9.00;4.07;;;18.20;99.90;;;;;;5032678;28;20222;-76
2022/11/26 12:26:05;;;;;;;9.43;3.28;;;18.20;99.90;;;;;;5029031;28;20202;-76
2022/11/26 12:28:40;;;;;;;3.38;0.98;;;18.20;99.90;;;;;;5032057;28;20205;-78
2022/11/26 12:31:17;;;;;;;4.22;0.85;;;18.20;99.90;;;;;;5023008;28;20208;-78
2022/11/26 12:33:55;;;;;;;6.53;1.05;;;18.10;99.90;;;;;;5021712;28;20214;-77
2022/11/26 12:36:37;;;;;;;4.75;1.10;;;18.10;99.90;;;;;;5020183;28;20392;-78
2022/11/26 12:39:17;;;;;;;4.97;1.65;;;18.10;99.90;;;;;;5028111;28;20232;-78
2022/11/26 12:41:55;;;;;;;6.63;1.13;;;18.10;99.90;;;;;;5032822;28;20226;-77
2022/11/26 12:44:34;;;;;;;4.05;0.90;;;18.00;99.90;;;;;;5030167;28;20245;-78
2022/11/26 12:47:16;;;;;;;4.88;1.00;;;18.00;99.90;;;;;;5031154;28;20272;-79
2022/11/26 12:50:01;;;;;;;5.20;1.30;;;18.00;99.90;;;;;;5031142;28;20277;-78
2022/11/26 12:52:40;;;;;;;4.43;0.93;;;18.00;99.90;;;;;;5031604;28;20277;-78
2022/11/26 12:55:19;;;;;;;5.40;0.82;;;18.00;99.90;;;;;;5032690;28;20228;-77
2022/11/26 12:57:54;;;;;;;5.15;1.00;;;18.00;99.90;;;;;;5030490;28;20202;-76
2022/11/26 13:00:31;;;;;;;6.75;1.08;;;18.00;99.90;;;;;;5032928;28;20190;-76
2022/11/26 13:03:02;;;;;;;5.03;1.02;;;18.00;99.90;;;;;;5021573;28;20553;-77
2022/11/26 13:05:44;;;;;;;4.80;0.95;;;18.00;99.90;;;;;;5031050;28;20273;-76
2022/11/26 13:08:26;;;;;;;3.90;1.00;;;18.00;99.90;;;;;;5022913;28;20194;-77
2022/11/26 13:11:16;;;;;;;4.50;1.10;;;18.00;99.90;;;;;;5026781;28;20213;-77
2022/11/26 13:13:57;;;;;;;5.50;1.00;;;17.90;99.90;;;;;;5030440;28;20186;-77
2022/11/26 13:16:37;;;;;;;4.78;1.13;;;18.00;99.90;;;;;;5029317;28;20214;-77
2022/11/26 13:19:15;;;;;;;3.75;1.25;;;17.90;99.90;;;;;;5024752;28;20194;-77
2022/11/26 13:22:29;;;;;;;4.97;1.00;;;17.90;99.90;;;;;;5030343;28;20201;-77
2022/11/26 13:25:27;;;;;;;3.28;1.00;;;17.90;99.90;;;;;;5005053;28;20265;-76
2022/11/26 13:28:09;;;;;;;5.20;1.00;;;17.90;99.90;;;;;;5025324;28;20237;-76